createdAt,value
2022-08-07T00:00:45.863Z,68.14
2022-08-07T00:02:41.130Z,68.15
2022-08-07T00:03:47.339Z,68.11
2022-08-07T00:04:45.941Z,68.00
2022-08-07T00:05:46.366Z,68.00
2022-08-07T00:06:51.813Z,68.28
2022-08-07T00:07:45.869Z,68.28
2022-08-07T00:08:45.894Z,68.41
2022-08-07T00:09:59.255Z,68.52
2022-08-07T00:10:47.930Z,68.62
2022-08-07T00:11:53.988Z,68.63
2022-08-07T00:12:57.730Z,68.71
2022-08-07T00:13:45.909Z,68.95
2022-08-07T00:14:45.885Z,69.09
2022-08-07T00:15:46.676Z,69.26
2022-08-07T00:16:45.883Z,69.33
2022-08-07T00:17:45.901Z,69.33
2022-08-07T00:18:45.922Z,69.23
2022-08-07T00:20:01.461Z,69.08
2022-08-07T00:20:45.895Z,68.88
2022-08-07T00:21:56.593Z,68.81
2022-08-07T00:22:51.609Z,68.61
2022-08-07T00:23:45.904Z,68.28
2022-08-07T00:24:45.902Z,68.15
2022-08-07T00:25:59.017Z,68.07
2022-08-07T00:26:49.296Z,68.07
2022-08-07T00:27:52.358Z,68.34
2022-08-07T00:28:56.673Z,68.47
2022-08-07T00:29:45.947Z,68.65
2022-08-07T00:30:45.945Z,68.69
2022-08-07T00:31:45.948Z,68.56
2022-08-07T00:32:45.923Z,68.29
2022-08-07T00:33:47.376Z,68.11
2022-08-07T00:34:45.930Z,67.95
2022-08-07T00:35:49.631Z,67.90
2022-08-07T00:36:45.953Z,67.88
2022-08-07T00:37:47.889Z,68.07
2022-08-07T00:38:45.969Z,68.16
2022-08-07T00:39:54.251Z,68.07
2022-08-07T00:40:45.955Z,68.06
2022-08-07T00:41:53.819Z,67.89
2022-08-07T00:42:45.960Z,67.66
2022-08-07T00:43:59.639Z,67.53
2022-08-07T00:44:45.952Z,67.53
2022-08-07T00:45:46.497Z,67.60
2022-08-07T00:48:09.641Z,67.47
2022-08-07T00:48:49.974Z,67.38
2022-08-07T00:50:21.487Z,67.25
2022-08-07T00:50:51.080Z,67.26
2022-08-07T00:51:58.758Z,66.86
2022-08-07T00:52:47.310Z,66.65
2022-08-07T00:53:50.800Z,66.72
2022-08-07T00:56:45.994Z,66.54
2022-08-07T00:57:55.170Z,66.46
2022-08-07T00:58:46.940Z,66.64
2022-08-07T00:59:46.009Z,66.77
2022-08-07T01:00:53.729Z,66.75
2022-08-07T01:01:46.040Z,66.75
2022-08-07T01:02:46.012Z,66.98
2022-08-07T01:03:56.314Z,67.34
2022-08-07T01:04:46.020Z,67.58
2022-08-07T01:05:53.488Z,67.90
2022-08-07T01:06:46.016Z,68.15
2022-08-07T01:08:53.328Z,68.46
2022-08-07T01:10:05.692Z,68.41
2022-08-07T01:10:47.753Z,68.38
2022-08-07T01:12:26.538Z,68.20
2022-08-07T01:12:54.136Z,68.19
2022-08-07T01:13:55.547Z,68.02
2022-08-07T01:16:00.969Z,68.00
2022-08-07T01:16:47.391Z,67.99
2022-08-07T01:17:46.069Z,67.87
2022-08-07T01:18:46.090Z,67.62
2022-08-07T01:19:54.441Z,67.62
2022-08-07T01:20:58.442Z,67.37
2022-08-07T01:21:46.061Z,67.37
2022-08-07T01:22:46.652Z,67.46
2022-08-07T01:23:46.627Z,67.44
2022-08-07T01:24:46.089Z,67.48
2022-08-07T01:25:55.821Z,67.47
2022-08-07T01:26:47.903Z,67.51
2022-08-07T01:27:50.897Z,67.71
2022-08-07T01:28:48.188Z,67.80
2022-08-07T01:29:46.096Z,67.75
2022-08-07T01:30:46.098Z,67.73
2022-08-07T01:31:46.190Z,67.59
2022-08-07T01:32:46.089Z,67.42
2022-08-07T01:33:55.461Z,67.28
2022-08-07T01:34:47.406Z,67.17
2022-08-07T01:35:53.710Z,66.85
2022-08-07T01:36:52.775Z,66.85
2022-08-07T01:37:46.110Z,66.74
2022-08-07T01:38:46.095Z,66.74
2022-08-07T01:39:46.723Z,66.76
2022-08-07T01:40:46.111Z,66.92
2022-08-07T01:42:57.225Z,67.21
2022-08-07T01:43:46.107Z,67.08
2022-08-07T01:44:47.988Z,67.12
2022-08-07T01:45:46.673Z,67.20
2022-08-07T01:48:20.773Z,67.10
2022-08-07T01:48:46.685Z,67.06
2022-08-07T01:50:46.297Z,67.06
2022-08-07T01:52:01.498Z,67.00
2022-08-07T01:52:49.472Z,67.02
2022-08-07T01:54:09.478Z,66.78
2022-08-07T01:54:46.139Z,66.92
2022-08-07T01:55:46.132Z,66.93
2022-08-07T01:56:49.471Z,66.89
2022-08-07T01:58:06.377Z,66.95
2022-08-07T01:58:46.156Z,66.95
2022-08-07T01:59:46.195Z,66.98
2022-08-07T02:00:49.253Z,67.03
2022-08-07T02:01:59.851Z,67.06
2022-08-07T02:03:19.301Z,67.19
2022-08-07T02:03:50.291Z,67.22
2022-08-07T02:04:56.239Z,67.10
2022-08-07T02:05:53.708Z,66.83
2022-08-07T02:06:46.178Z,66.83
2022-08-07T02:07:50.670Z,66.66
2022-08-07T02:08:46.181Z,66.66
2022-08-07T02:10:54.887Z,66.51
2022-08-07T02:12:46.496Z,66.49
2022-08-07T02:14:00.678Z,66.18
2022-08-07T02:14:46.202Z,66.18
2022-08-07T02:15:46.213Z,66.01
2022-08-07T02:16:46.197Z,65.95
2022-08-07T02:17:49.230Z,65.79
2022-08-07T02:20:04.606Z,65.65
2022-08-07T02:21:56.235Z,65.60
2022-08-07T02:22:46.234Z,65.61
2022-08-07T02:24:46.235Z,65.28
2022-08-07T02:26:30.926Z,65.38
2022-08-07T02:26:46.228Z,65.31
2022-08-07T02:27:51.918Z,65.25
2022-08-07T02:28:46.240Z,65.33
2022-08-07T02:29:54.347Z,65.23
2022-08-07T02:30:46.255Z,65.36
2022-08-07T02:31:46.242Z,65.36
2022-08-07T02:33:03.999Z,65.49
2022-08-07T02:34:01.658Z,65.64
2022-08-07T02:34:51.330Z,65.99
2022-08-07T02:36:28.379Z,65.99
2022-08-07T02:36:46.263Z,66.46
2022-08-07T02:37:46.251Z,66.46
2022-08-07T02:40:12.314Z,66.57
2022-08-07T02:41:47.278Z,66.51
2022-08-07T02:43:47.746Z,66.51
2022-08-07T02:44:48.231Z,66.79
2022-08-07T02:45:58.635Z,66.98
2022-08-07T02:46:46.527Z,67.18
2022-08-07T02:47:49.143Z,67.29
2022-08-07T02:48:55.119Z,67.42
2022-08-07T02:49:56.452Z,67.55
2022-08-07T02:50:46.286Z,67.72
2022-08-07T02:52:48.661Z,67.74
2022-08-07T02:53:46.297Z,67.74
2022-08-07T02:54:46.305Z,67.76
2022-08-07T02:56:04.225Z,67.95
2022-08-07T02:56:46.315Z,67.98
2022-08-07T02:57:46.764Z,67.98
2022-08-07T02:58:47.229Z,68.03
2022-08-07T02:59:55.039Z,67.85
2022-08-07T03:00:47.371Z,67.93
2022-08-07T03:01:47.377Z,67.86
2022-08-07T03:02:54.509Z,67.87
2022-08-07T03:04:46.457Z,67.71
2022-08-07T03:05:46.346Z,67.63
2022-08-07T03:06:48.132Z,67.56
2022-08-07T03:08:06.809Z,67.46
2022-08-07T03:08:46.337Z,67.27
2022-08-07T03:09:50.626Z,67.01
2022-08-07T03:10:47.221Z,67.06
2022-08-07T03:11:52.273Z,66.78
2022-08-07T03:12:46.352Z,66.78
2022-08-07T03:13:49.728Z,66.69
2022-08-07T03:14:52.013Z,66.53
2022-08-07T03:15:47.887Z,66.43
2022-08-07T03:16:46.355Z,66.23
2022-08-07T03:17:53.774Z,66.17
2022-08-07T03:18:46.377Z,66.16
2022-08-07T03:19:54.457Z,65.95
2022-08-07T03:20:46.420Z,66.00
2022-08-07T03:21:50.747Z,66.00
2022-08-07T03:22:50.242Z,65.98
2022-08-07T03:24:18.160Z,65.87
2022-08-07T03:24:46.399Z,65.46
2022-08-07T03:25:46.373Z,65.46
2022-08-07T03:26:57.830Z,65.37
2022-08-07T03:28:08.812Z,65.28
2022-08-07T03:28:46.401Z,65.41
2022-08-07T03:29:51.010Z,65.41
2022-08-07T03:30:46.402Z,65.12
2022-08-07T03:31:49.881Z,64.93
2022-08-07T03:32:49.064Z,64.90
2022-08-07T03:33:46.406Z,64.96
2022-08-07T03:35:50.157Z,64.99
2022-08-07T03:36:46.405Z,64.99
2022-08-07T03:37:53.875Z,64.90
2022-08-07T03:39:59.339Z,64.76
2022-08-07T03:40:46.479Z,64.74
2022-08-07T03:41:47.760Z,64.55
2022-08-07T03:42:46.424Z,64.47
2022-08-07T03:43:57.377Z,64.52
2022-08-07T03:44:53.106Z,64.51
2022-08-07T03:45:48.455Z,64.44
2022-08-07T03:47:13.732Z,64.18
2022-08-07T03:47:51.233Z,64.04
2022-08-07T03:49:48.062Z,64.09
2022-08-07T03:50:56.009Z,63.99
2022-08-07T03:51:47.650Z,63.89
2022-08-07T03:54:01.859Z,63.96
2022-08-07T03:55:58.045Z,64.02
2022-08-07T03:57:03.489Z,63.90
2022-08-07T03:58:33.518Z,63.85
2022-08-07T03:59:08.056Z,63.83
2022-08-07T04:00:02.601Z,63.64
2022-08-07T04:00:53.998Z,63.75
2022-08-07T04:01:46.637Z,63.77
2022-08-07T04:02:47.291Z,63.71
2022-08-07T04:03:53.205Z,63.64
2022-08-07T04:04:46.490Z,63.64
2022-08-07T04:06:46.499Z,63.88
2022-08-07T04:07:46.772Z,63.79
2022-08-07T04:08:46.479Z,64.04
2022-08-07T04:09:50.602Z,64.00
2022-08-07T04:10:54.200Z,64.15
2022-08-07T04:12:27.890Z,64.23
2022-08-07T04:12:46.504Z,64.25
2022-08-07T04:14:10.681Z,64.35
2022-08-07T04:14:47.753Z,64.28
2022-08-07T04:15:49.014Z,64.64
2022-08-07T04:16:58.710Z,64.63
2022-08-07T04:18:56.303Z,64.79
2022-08-07T04:18:59.464Z,65.02
2022-08-07T04:20:54.598Z,65.17
2022-08-07T04:21:58.710Z,65.28
2022-08-07T04:22:53.540Z,65.29
2022-08-07T04:24:05.964Z,65.44
2022-08-07T04:24:46.555Z,65.57
2022-08-07T04:26:46.540Z,65.63
2022-08-07T04:27:59.253Z,65.79
2022-08-07T04:28:46.549Z,65.83
2022-08-07T04:30:55.620Z,66.01
2022-08-07T04:32:09.809Z,65.83
2022-08-07T04:32:47.775Z,65.66
2022-08-07T04:33:46.568Z,65.53
2022-08-07T04:34:46.556Z,65.32
2022-08-07T04:35:50.536Z,65.22
2022-08-07T04:36:48.747Z,64.92
2022-08-07T04:38:02.934Z,64.92
2022-08-07T04:38:46.576Z,64.69
2022-08-07T04:39:49.790Z,64.52
2022-08-07T04:40:52.159Z,64.25
2022-08-07T04:41:48.295Z,64.17
2022-08-07T04:42:46.563Z,64.29
2022-08-07T04:44:12.977Z,64.11
2022-08-07T04:44:54.382Z,63.81
2022-08-07T04:46:00.986Z,63.97
2022-08-07T04:46:59.255Z,63.70
2022-08-07T04:48:00.526Z,63.64
2022-08-07T04:48:46.620Z,63.52
2022-08-07T04:49:47.449Z,63.50
2022-08-07T04:50:52.925Z,63.25
2022-08-07T04:51:46.588Z,63.17
2022-08-07T04:52:51.750Z,63.32
2022-08-07T04:54:05.792Z,63.39
2022-08-07T04:54:50.421Z,63.22
2022-08-07T04:58:09.810Z,62.85
2022-08-07T04:58:14.159Z,62.88
2022-08-07T04:58:16.618Z,63.07
2022-08-07T04:59:18.581Z,62.98
2022-08-07T05:00:46.676Z,63.19
2022-08-07T05:01:46.627Z,63.14
2022-08-07T05:02:50.919Z,63.48
2022-08-07T05:04:06.371Z,63.48
2022-08-07T05:04:49.996Z,63.58
2022-08-07T05:05:53.255Z,63.70
2022-08-07T05:06:51.783Z,63.73
2022-08-07T05:07:48.667Z,63.88
2022-08-07T05:09:00.894Z,64.16
2022-08-07T05:09:47.038Z,64.08
2022-08-07T05:10:46.650Z,64.10
2022-08-07T05:11:57.422Z,64.17
2022-08-07T05:12:52.823Z,63.99
2022-08-07T05:14:52.900Z,63.74
2022-08-07T05:14:59.247Z,63.65
2022-08-07T05:15:46.664Z,63.51
2022-08-07T05:16:46.659Z,63.51
2022-08-07T05:17:52.503Z,63.41
2022-08-07T05:18:46.671Z,63.40
2022-08-07T05:19:46.679Z,63.41
2022-08-07T05:20:46.664Z,63.28
2022-08-07T05:22:46.910Z,63.39
2022-08-07T05:24:46.684Z,63.37
2022-08-07T05:26:10.954Z,63.29
2022-08-07T05:28:02.702Z,63.78
2022-08-07T05:28:50.130Z,63.73
2022-08-07T05:29:52.186Z,63.55
2022-08-07T05:30:47.123Z,63.61
2022-08-07T05:31:47.436Z,63.86
2022-08-07T05:32:46.844Z,64.08
2022-08-07T05:34:01.126Z,64.10
2022-08-07T05:34:46.718Z,64.03
2022-08-07T05:35:46.704Z,64.08
2022-08-07T05:36:48.998Z,64.30
2022-08-07T05:37:46.849Z,64.44
2022-08-07T05:39:01.014Z,64.74
2022-08-07T05:40:14.034Z,64.73
2022-08-07T05:40:51.461Z,64.73
2022-08-07T05:42:00.484Z,64.82
2022-08-07T05:44:07.931Z,64.59
2022-08-07T05:45:04.204Z,64.43
2022-08-07T05:45:48.356Z,64.49
2022-08-07T05:46:46.748Z,64.66
2022-08-07T05:48:01.448Z,64.71
2022-08-07T05:48:59.581Z,64.71
2022-08-07T05:49:46.751Z,64.90
2022-08-07T05:50:46.750Z,64.99
2022-08-07T05:51:47.060Z,65.04
2022-08-07T05:52:46.847Z,65.18
2022-08-07T05:54:13.221Z,65.29
2022-08-07T05:54:55.890Z,65.16
2022-08-07T05:56:03.273Z,65.40
2022-08-07T05:56:46.750Z,65.40
2022-08-07T05:58:52.423Z,65.51
2022-08-07T05:59:57.866Z,65.32
2022-08-07T06:00:51.037Z,65.55
2022-08-07T06:01:46.795Z,65.55
2022-08-07T06:02:46.993Z,65.76
2022-08-07T06:03:53.726Z,65.94
2022-08-07T06:05:49.052Z,65.92
2022-08-07T06:06:47.714Z,66.14
2022-08-07T06:08:13.681Z,65.94
2022-08-07T06:08:46.900Z,65.86
2022-08-07T06:10:05.182Z,65.52
2022-08-07T06:10:46.801Z,65.48
2022-08-07T06:11:46.802Z,65.20
2022-08-07T06:12:46.850Z,65.07
2022-08-07T06:14:11.700Z,65.02
2022-08-07T06:14:49.687Z,65.05
2022-08-07T06:16:55.915Z,65.03
2022-08-07T06:17:53.383Z,65.03
2022-08-07T06:18:54.228Z,64.96
2022-08-07T06:19:52.271Z,65.01
2022-08-07T06:20:50.462Z,64.92
2022-08-07T06:22:16.022Z,64.86
2022-08-07T06:23:02.548Z,64.95
2022-08-07T06:24:38.180Z,64.92
2022-08-07T06:25:54.372Z,65.08
2022-08-07T06:26:46.843Z,65.15
2022-08-07T06:28:01.045Z,65.37
2022-08-07T06:29:48.249Z,65.31
2022-08-07T06:30:50.815Z,65.31
2022-08-07T06:31:49.785Z,65.53
2022-08-07T06:32:46.900Z,65.59
2022-08-07T06:33:46.843Z,65.54
2022-08-07T06:34:46.886Z,65.48
2022-08-07T06:36:06.088Z,65.31
2022-08-07T06:36:46.889Z,65.04
2022-08-07T06:37:47.087Z,64.82
2022-08-07T06:38:59.322Z,64.25
2022-08-07T06:40:46.989Z,64.35
2022-08-07T06:42:02.689Z,64.11
2022-08-07T06:42:46.997Z,64.11
2022-08-07T06:43:59.274Z,63.84
2022-08-07T06:46:53.576Z,63.34
2022-08-07T06:47:57.294Z,63.43
2022-08-07T06:48:46.923Z,63.53
2022-08-07T06:49:51.453Z,63.58
2022-08-07T06:50:47.724Z,63.58
2022-08-07T06:51:49.726Z,63.58
2022-08-07T06:55:33.209Z,63.39
2022-08-07T06:55:53.934Z,63.26
2022-08-07T06:56:49.667Z,63.26
2022-08-07T06:57:50.988Z,63.00
2022-08-07T07:00:12.603Z,62.93
2022-08-07T07:00:14.269Z,62.94
2022-08-07T07:00:46.929Z,62.94
2022-08-07T07:01:48.737Z,62.62
2022-08-07T07:02:48.630Z,62.59
2022-08-07T07:04:55.109Z,62.75
2022-08-07T07:06:02.740Z,62.80
2022-08-07T07:06:57.647Z,62.93
2022-08-07T07:07:59.337Z,62.97
2022-08-07T07:08:47.089Z,62.83
2022-08-07T07:09:46.948Z,62.71
2022-08-07T07:10:47.530Z,62.60
2022-08-07T07:12:08.441Z,62.58
2022-08-07T07:12:48.812Z,62.55
2022-08-07T07:13:57.482Z,62.53
2022-08-07T07:14:46.987Z,63.14
2022-08-07T07:15:51.502Z,63.14
2022-08-07T07:16:51.104Z,63.06
2022-08-07T07:17:50.506Z,62.86
2022-08-07T07:18:48.640Z,63.01
2022-08-07T07:19:57.263Z,63.20
2022-08-07T07:20:46.979Z,62.70
2022-08-07T07:22:11.574Z,62.70
2022-08-07T07:24:05.089Z,62.62
2022-08-07T07:24:10.287Z,62.62
2022-08-07T07:26:35.840Z,62.83
2022-08-07T07:26:51.761Z,62.61
2022-08-07T07:29:38.954Z,62.44
2022-08-07T07:30:08.852Z,62.22
2022-08-07T07:30:51.843Z,62.13
2022-08-07T07:31:47.075Z,62.13
2022-08-07T07:33:54.942Z,61.83
2022-08-07T07:36:03.895Z,61.74
2022-08-07T07:36:47.963Z,61.84
2022-08-07T07:37:49.907Z,61.94
2022-08-07T07:39:54.754Z,61.71
2022-08-07T07:40:47.035Z,61.71
2022-08-07T07:42:01.972Z,61.61
2022-08-07T07:42:51.102Z,61.51
2022-08-07T07:44:14.261Z,61.30
2022-08-07T07:44:49.419Z,61.44
2022-08-07T07:46:40.088Z,61.21
2022-08-07T07:46:56.072Z,61.26
2022-08-07T07:47:52.479Z,61.07
2022-08-07T07:48:47.050Z,61.00
2022-08-07T07:50:33.221Z,61.15
2022-08-07T07:50:47.036Z,61.30
2022-08-07T07:51:58.044Z,61.30
2022-08-07T07:52:47.277Z,61.50
2022-08-07T07:53:52.498Z,61.55
2022-08-07T07:54:51.315Z,61.57
2022-08-07T07:55:57.975Z,61.73
2022-08-07T07:56:47.078Z,61.69
2022-08-07T07:57:53.800Z,61.64
2022-08-07T07:58:47.068Z,61.57
2022-08-07T07:59:52.828Z,61.22
2022-08-07T08:00:53.550Z,61.20
2022-08-07T08:02:02.468Z,61.27
2022-08-07T08:03:05.372Z,61.23
2022-08-07T08:04:09.943Z,61.29
2022-08-07T08:04:47.145Z,61.29
2022-08-07T08:05:54.905Z,61.36
2022-08-07T08:06:52.109Z,61.43
2022-08-07T08:08:00.805Z,61.06
2022-08-07T08:08:48.216Z,61.06
2022-08-07T08:09:52.114Z,60.80
2022-08-07T08:10:47.957Z,60.47
2022-08-07T08:11:59.621Z,60.24
2022-08-07T08:12:59.099Z,60.26
2022-08-07T08:13:54.028Z,60.26
2022-08-07T08:14:47.123Z,60.51
2022-08-07T08:15:59.057Z,60.67
2022-08-07T08:16:50.454Z,60.53
2022-08-07T08:17:57.180Z,60.30
2022-08-07T08:18:50.514Z,60.73
2022-08-07T08:20:18.613Z,61.04
2022-08-07T08:20:47.945Z,61.31
2022-08-07T08:21:56.042Z,61.72
2022-08-07T08:22:55.782Z,61.78
2022-08-07T08:23:47.144Z,61.74
2022-08-07T08:24:47.147Z,61.41
2022-08-07T08:25:49.028Z,61.23
2022-08-07T08:26:50.356Z,60.89
2022-08-07T08:27:56.714Z,60.44
2022-08-07T08:28:47.144Z,60.41
2022-08-07T08:29:55.486Z,60.10
2022-08-07T08:30:50.944Z,60.10
2022-08-07T08:32:17.551Z,60.16
2022-08-07T08:32:48.820Z,59.87
2022-08-07T08:33:50.205Z,59.92
2022-08-07T08:34:47.166Z,59.74
2022-08-07T08:35:49.855Z,59.88
2022-08-07T08:38:00.934Z,59.72
2022-08-07T08:38:47.176Z,59.59
2022-08-07T08:39:55.247Z,59.46
2022-08-07T08:40:47.435Z,59.29
2022-08-07T08:41:58.825Z,59.22
2022-08-07T08:42:47.172Z,59.22
2022-08-07T08:43:55.842Z,59.07
2022-08-07T08:44:52.220Z,58.87
2022-08-07T08:46:47.194Z,59.00
2022-08-07T08:47:55.169Z,59.01
2022-08-07T08:48:47.196Z,59.01
2022-08-07T08:50:02.495Z,59.08
2022-08-07T08:50:47.193Z,58.98
2022-08-07T08:51:49.634Z,58.75
2022-08-07T08:52:53.633Z,58.71
2022-08-07T08:53:47.215Z,58.76
2022-08-07T08:54:47.212Z,59.04
2022-08-07T08:55:54.934Z,59.05
2022-08-07T08:57:47.245Z,59.24
2022-08-07T08:58:47.231Z,59.06
2022-08-07T09:01:49.451Z,59.01
2022-08-07T09:02:52.265Z,59.22
2022-08-07T09:03:49.877Z,58.94
2022-08-07T09:04:47.247Z,58.72
2022-08-07T09:05:47.237Z,58.74
2022-08-07T09:06:48.023Z,58.66
2022-08-07T09:07:57.667Z,59.21
2022-08-07T09:08:47.262Z,59.39
2022-08-07T09:09:47.514Z,59.39
2022-08-07T09:10:47.263Z,59.56
2022-08-07T09:11:53.222Z,59.46
2022-08-07T09:12:53.461Z,59.61
2022-08-07T09:13:47.276Z,59.70
2022-08-07T09:14:50.654Z,59.65
2022-08-07T09:16:21.957Z,59.59
2022-08-07T09:16:47.620Z,59.53
2022-08-07T09:18:07.232Z,60.40
2022-08-07T09:19:53.622Z,60.90
2022-08-07T09:20:57.895Z,61.11
2022-08-07T09:22:10.306Z,61.04
2022-08-07T09:24:32.198Z,60.99
2022-08-07T09:24:32.306Z,60.66
2022-08-07T09:24:59.112Z,60.11
2022-08-07T09:25:47.327Z,60.03
2022-08-07T09:26:47.957Z,59.79
2022-08-07T09:27:54.697Z,59.54
2022-08-07T09:30:05.813Z,59.48
2022-08-07T09:30:06.492Z,59.67
2022-08-07T09:30:49.715Z,59.67
2022-08-07T09:31:49.334Z,59.58
2022-08-07T09:32:47.336Z,59.36
2022-08-07T09:33:57.514Z,59.36
2022-08-07T09:34:54.023Z,59.73
2022-08-07T09:36:04.507Z,60.38
2022-08-07T09:36:49.900Z,61.01
2022-08-07T09:37:48.547Z,61.26
2022-08-07T09:38:53.433Z,61.21
2022-08-07T09:39:55.123Z,60.96
2022-08-07T09:40:47.324Z,60.96
2022-08-07T09:41:59.078Z,60.63
2022-08-07T09:42:47.364Z,60.05
2022-08-07T09:44:05.631Z,60.05
2022-08-07T09:47:23.826Z,59.43
2022-08-07T09:47:24.038Z,59.90
2022-08-07T09:47:51.766Z,59.24
2022-08-07T09:47:59.451Z,59.43
2022-08-07T09:50:02.400Z,59.59
2022-08-07T09:50:02.402Z,59.66
2022-08-07T09:50:47.359Z,59.44
2022-08-07T09:52:16.587Z,59.19
2022-08-07T09:52:51.669Z,59.29
2022-08-07T09:53:55.140Z,59.14
2022-08-07T09:54:47.367Z,59.14
2022-08-07T09:56:03.273Z,59.23
2022-08-07T09:56:47.397Z,59.23
2022-08-07T09:57:47.460Z,58.90
2022-08-07T09:58:48.660Z,57.90
2022-08-07T10:00:00.733Z,57.90
2022-08-07T10:00:47.383Z,57.79
2022-08-07T10:01:51.501Z,57.24
2022-08-07T10:04:04.704Z,56.80
2022-08-07T10:04:52.822Z,57.01
2022-08-07T10:06:00.159Z,56.86
2022-08-07T10:06:49.230Z,56.79
2022-08-07T10:07:53.160Z,56.71
2022-08-07T10:08:49.590Z,56.61
2022-08-07T10:10:00.179Z,56.61
2022-08-07T10:12:00.032Z,56.65
2022-08-07T10:12:53.115Z,55.88
2022-08-07T10:14:00.280Z,55.70
2022-08-07T10:14:55.176Z,55.86
2022-08-07T10:15:47.436Z,55.80
2022-08-07T10:16:47.430Z,55.91
2022-08-07T10:18:00.976Z,55.68
2022-08-07T10:18:47.476Z,55.34
2022-08-07T10:19:47.598Z,55.34
2022-08-07T10:20:47.432Z,55.79
2022-08-07T10:22:12.136Z,55.77
2022-08-07T10:22:47.449Z,55.79
2022-08-07T10:24:47.453Z,55.67
2022-08-07T10:25:47.450Z,55.65
2022-08-07T10:26:53.066Z,55.70
2022-08-07T10:27:51.101Z,56.11
2022-08-07T10:28:49.441Z,56.09
2022-08-07T10:29:52.053Z,56.21
2022-08-07T10:30:47.470Z,56.79
2022-08-07T10:31:47.480Z,56.88
2022-08-07T10:32:53.051Z,56.96
2022-08-07T10:34:04.985Z,56.96
2022-08-07T10:34:47.484Z,57.39
2022-08-07T10:36:47.558Z,58.05
2022-08-07T10:38:00.248Z,58.25
2022-08-07T10:38:48.942Z,58.22
2022-08-07T10:40:03.363Z,58.51
2022-08-07T10:41:56.797Z,58.83
2022-08-07T10:42:47.511Z,58.39
2022-08-07T10:43:47.514Z,58.05
2022-08-07T10:44:47.509Z,57.71
2022-08-07T10:45:57.318Z,57.67
2022-08-07T10:46:47.517Z,57.58
2022-08-07T10:47:51.373Z,57.21
2022-08-07T10:48:47.504Z,57.08
2022-08-07T10:49:50.907Z,56.40
2022-08-07T10:50:50.277Z,56.52
2022-08-07T10:52:01.926Z,56.52
2022-08-07T10:52:51.213Z,56.59
2022-08-07T10:53:47.547Z,57.05
2022-08-07T10:54:55.146Z,57.29
2022-08-07T10:55:47.514Z,57.59
2022-08-07T10:56:47.516Z,57.54
2022-08-07T10:57:56.012Z,57.81
2022-08-07T10:58:47.587Z,57.94
2022-08-07T10:59:47.729Z,57.96
2022-08-07T11:00:50.377Z,57.56
2022-08-07T11:01:51.136Z,57.46
2022-08-07T11:02:49.117Z,57.15
2022-08-07T11:03:55.245Z,57.24
2022-08-07T11:04:47.546Z,56.96
2022-08-07T11:05:49.198Z,57.19
2022-08-07T11:06:47.573Z,57.46
2022-08-07T11:08:00.544Z,57.53
2022-08-07T11:08:47.547Z,57.47
2022-08-07T11:10:08.576Z,57.42
2022-08-07T11:10:55.494Z,57.42
2022-08-07T11:11:51.836Z,57.73
2022-08-07T11:12:49.297Z,57.73
2022-08-07T11:14:43.502Z,57.66
2022-08-07T11:15:00.181Z,57.47
2022-08-07T11:15:54.248Z,57.48
2022-08-07T11:16:51.301Z,56.87
2022-08-07T11:17:47.946Z,56.73
2022-08-07T11:18:50.941Z,56.76
2022-08-07T11:19:47.575Z,56.28
2022-08-07T11:20:47.600Z,56.47
2022-08-07T11:21:47.590Z,56.55
2022-08-07T11:22:47.636Z,56.09
2022-08-07T11:23:48.549Z,56.09
2022-08-07T11:24:47.609Z,55.90
2022-08-07T11:25:50.144Z,55.78
2022-08-07T11:26:48.178Z,56.14
2022-08-07T11:28:55.704Z,56.31
2022-08-07T11:30:10.019Z,56.43
2022-08-07T11:30:47.638Z,56.56
2022-08-07T11:31:47.625Z,56.23
2022-08-07T11:32:47.628Z,56.09
2022-08-07T11:33:59.189Z,55.60
2022-08-07T11:34:47.632Z,55.62
2022-08-07T11:35:59.153Z,55.38
2022-08-07T11:36:47.648Z,55.25
2022-08-07T11:37:57.897Z,55.17
2022-08-07T11:38:50.581Z,55.08
2022-08-07T11:40:01.645Z,55.05
2022-08-07T11:40:49.716Z,55.05
2022-08-07T11:42:01.343Z,54.70
2022-08-07T11:42:47.677Z,54.54
2022-08-07T11:44:11.152Z,54.54
2022-08-07T11:44:52.405Z,54.60
2022-08-07T11:45:49.895Z,54.41
2022-08-07T11:47:56.632Z,54.05
2022-08-07T11:49:28.686Z,53.63
2022-08-07T11:50:25.326Z,53.88
2022-08-07T11:50:57.217Z,54.08
2022-08-07T11:51:47.661Z,54.04
2022-08-07T11:52:47.679Z,53.76
2022-08-07T11:54:00.685Z,53.59
2022-08-07T11:54:54.967Z,53.53
2022-08-07T11:56:13.944Z,52.91
2022-08-07T11:56:52.270Z,52.64
2022-08-07T11:58:00.849Z,52.82
2022-08-07T11:58:49.630Z,52.71
2022-08-07T12:00:11.708Z,52.65
2022-08-07T12:00:48.885Z,52.45
2022-08-07T12:02:00.094Z,52.58
2022-08-07T12:02:52.094Z,51.78
2022-08-07T12:03:47.762Z,51.33
2022-08-07T12:04:47.714Z,51.33
2022-08-07T12:05:49.707Z,52.13
2022-08-07T12:06:51.648Z,52.30
2022-08-07T12:07:53.540Z,52.30
2022-08-07T12:08:47.741Z,52.25
2022-08-07T12:09:47.742Z,51.95
2022-08-07T12:10:47.728Z,52.00
2022-08-07T12:12:10.470Z,53.14
2022-08-07T12:12:47.735Z,53.14
2022-08-07T12:13:47.989Z,53.59
2022-08-07T12:14:51.469Z,53.83
2022-08-07T12:16:06.949Z,54.04
2022-08-07T12:16:47.763Z,53.98
2022-08-07T12:17:59.377Z,53.98
2022-08-07T12:18:47.757Z,54.19
2022-08-07T12:19:56.372Z,54.19
2022-08-07T12:20:49.113Z,53.88
2022-08-07T12:21:55.912Z,53.56
2022-08-07T12:22:56.290Z,53.56
2022-08-07T12:24:06.066Z,53.54
2022-08-07T12:24:52.399Z,53.54
2022-08-07T12:26:05.725Z,53.15
2022-08-07T12:26:49.345Z,52.17
2022-08-07T12:28:09.925Z,52.67
2022-08-07T12:28:49.743Z,52.95
2022-08-07T12:29:47.766Z,52.75
2022-08-07T12:30:53.263Z,53.06
2022-08-07T12:31:53.340Z,53.05
2022-08-07T12:32:49.104Z,53.13
2022-08-07T12:33:55.875Z,53.13
2022-08-07T12:34:49.460Z,52.73
2022-08-07T12:35:48.210Z,52.17
2022-08-07T12:36:50.021Z,52.52
2022-08-07T12:38:09.739Z,52.41
2022-08-07T12:38:57.613Z,52.71
2022-08-07T12:39:50.598Z,52.75
2022-08-07T12:40:48.809Z,52.33
2022-08-07T12:41:49.907Z,52.41
2022-08-07T12:42:54.965Z,52.85
2022-08-07T12:44:04.419Z,52.71
2022-08-07T12:44:47.806Z,52.83
2022-08-07T12:45:50.260Z,52.73
2022-08-07T12:46:47.811Z,52.70
2022-08-07T12:47:49.242Z,52.30
2022-08-07T12:48:53.063Z,52.20
2022-08-07T12:49:51.579Z,51.90
2022-08-07T12:50:49.188Z,51.90
2022-08-07T12:51:52.704Z,51.59
2022-08-07T12:52:47.845Z,51.92
2022-08-07T12:54:02.726Z,51.97
2022-08-07T12:54:54.897Z,52.07
2022-08-07T12:56:02.873Z,52.33
2022-08-07T12:56:50.845Z,52.22
2022-08-07T12:58:01.007Z,52.29
2022-08-07T12:58:56.983Z,52.22
2022-08-07T12:59:54.299Z,51.97
2022-08-07T13:00:50.229Z,51.55
2022-08-07T13:01:47.903Z,51.55
2022-08-07T13:02:49.501Z,51.34
2022-08-07T13:04:00.637Z,51.08
2022-08-07T13:04:57.716Z,51.08
2022-08-07T13:06:04.642Z,50.51
2022-08-07T13:07:00.214Z,50.38
2022-08-07T13:08:12.109Z,50.46
2022-08-07T13:08:47.875Z,50.64
2022-08-07T13:10:21.959Z,51.04
2022-08-07T13:10:52.017Z,51.04
2022-08-07T13:12:03.126Z,50.15
2022-08-07T13:12:47.869Z,50.15
2022-08-07T13:13:50.074Z,50.46
2022-08-07T13:14:51.238Z,50.56
2022-08-07T13:15:47.889Z,49.72
2022-08-07T13:16:50.945Z,49.71
2022-08-07T13:18:49.028Z,49.95
2022-08-07T13:19:51.441Z,49.81
2022-08-07T13:20:51.066Z,50.33
2022-08-07T13:21:51.237Z,50.36
2022-08-07T13:22:52.562Z,50.20
2022-08-07T13:24:01.849Z,50.26
2022-08-07T13:24:53.940Z,49.85
2022-08-07T13:25:50.766Z,49.26
2022-08-07T13:26:47.925Z,49.38
2022-08-07T13:28:12.358Z,49.51
2022-08-07T13:28:47.934Z,49.76
2022-08-07T13:29:48.122Z,49.17
2022-08-07T13:30:52.220Z,49.26
2022-08-07T13:31:55.263Z,49.36
2022-08-07T13:32:47.993Z,50.03
2022-08-07T13:34:33.811Z,50.03
2022-08-07T13:34:48.618Z,50.07
2022-08-07T13:36:00.910Z,50.05
2022-08-07T13:36:47.942Z,50.15
2022-08-07T13:37:58.681Z,49.77
2022-08-07T13:40:33.353Z,49.97
2022-08-07T13:40:48.023Z,50.08
2022-08-07T13:41:47.982Z,50.57
2022-08-07T13:42:47.970Z,50.97
2022-08-07T13:43:52.795Z,50.92
2022-08-07T13:45:11.610Z,51.07
2022-08-07T13:46:12.830Z,51.13
2022-08-07T13:46:49.290Z,51.09
2022-08-07T13:48:06.132Z,50.41
2022-08-07T13:48:58.761Z,50.41
2022-08-07T13:50:35.897Z,51.07
2022-08-07T13:51:00.133Z,51.49
2022-08-07T13:52:22.783Z,51.64
2022-08-07T13:52:47.994Z,51.46
2022-08-07T13:53:59.542Z,51.32
2022-08-07T13:54:49.076Z,51.12
2022-08-07T13:55:54.644Z,50.04
2022-08-07T13:56:55.575Z,50.12